Time;durP1;ratioP1;P1;durP2;ratioP2;P2;SDS_P1;SDS_P2;PMS_P1;PMS_P2;Temp;Humidity;BMP_temperature;BMP_pressure;BME280_temperature;BME280_humidity;BME280_pressure;Samples;Min_cycle;Max_cycle;Signal;HPM_P1;HPM_P2
2022/11/09 00:01:44;;;;;;;2.78;1.05;;;;;;;16.13;84.74;99730.28;8254024;28;20034;-53
2022/11/09 00:05:55;;;;;;;1.92;0.90;;;;;;;16.05;85.44;99738.56;8261549;28;20038;-56
2022/11/09 00:09:56;;;;;;;2.55;0.90;;;;;;;16.00;85.73;99735.56;8263387;28;20455;-56
2022/11/09 00:13:56;;;;;;;2.95;1.00;;;;;;;16.01;85.37;99731.81;8263436;28;20108;-52
2022/11/09 00:18:00;;;;;;;4.13;0.88;;;;;;;16.01;85.04;99737.28;8262770;28;20046;-54
2022/11/09 00:22:01;;;;;;;2.03;0.88;;;;;;;16.00;84.64;99741.03;8255228;28;20507;-55
2022/11/09 00:26:03;;;;;;;3.90;1.00;;;;;;;15.99;84.45;99734.75;8247532;28;20544;-56
2022/11/09 00:30:04;;;;;;;1.45;0.90;;;;;;;16.04;84.07;99736.91;8242805;28;20511;-56
2022/11/09 00:34:05;;;;;;;1.67;0.60;;;;;;;16.06;83.83;99738.38;8246091;28;20578;-56
2022/11/09 00:38:05;;;;;;;2.75;1.00;;;;;;;16.08;83.65;99733.59;8236678;28;20508;-56
2022/11/09 00:42:06;;;;;;;2.63;0.93;;;;;;;16.20;83.06;99731.16;8231640;28;20034;-57
2022/11/09 00:46:07;;;;;;;4.93;0.98;;;;;;;16.14;83.34;99726.50;8242930;28;20042;-55
2022/11/09 00:50:08;;;;;;;5.70;1.20;;;;;;;16.05;83.80;99716.75;8251068;28;20045;-57
2022/11/09 00:54:10;;;;;;;2.50;0.98;;;;;;;16.11;83.47;99721.44;8260141;28;20457;-56
2022/11/09 00:58:10;;;;;;;2.80;0.80;;;;;;;16.06;83.93;99721.16;8249065;28;20069;-56
2022/11/09 01:02:11;;;;;;;2.22;0.98;;;;;;;15.98;84.09;99719.41;8261995;28;20039;-56
2022/11/09 01:06:16;;;;;;;4.97;1.40;;;;;;;15.96;84.34;99728.81;8226181;28;20050;-56
2022/11/09 01:10:17;;;;;;;5.13;1.17;;;;;;;15.86;84.98;99736.50;8196905;28;20039;-54
2022/11/09 01:14:20;;;;;;;3.90;0.90;;;;;;;15.93;84.39;99734.66;8227381;28;20072;-55
2022/11/09 01:18:21;;;;;;;2.65;0.95;;;;;;;15.84;84.75;99739.41;8229353;28;20035;-55
2022/11/09 01:22:22;;;;;;;3.33;0.98;;;;;;;15.81;84.90;99722.59;8241025;28;20046;-56
2022/11/09 01:26:23;;;;;;;1.73;0.73;;;;;;;15.87;84.38;99732.72;8260951;28;20488;-56
2022/11/09 01:30:25;;;;;;;5.00;0.90;;;;;;;15.88;83.95;99740.69;8261076;28;20305;-56
2022/11/09 01:34:27;;;;;;;5.22;1.05;;;;;;;15.84;84.30;99741.28;8260523;28;20073;-57
2022/11/09 01:38:28;;;;;;;5.95;0.98;;;;;;;15.77;84.60;99750.22;8260652;28;20046;-57
2022/11/09 01:42:29;;;;;;;6.85;1.15;;;;;;;15.61;85.73;99758.63;8261012;28;20114;-56
2022/11/09 01:46:36;;;;;;;4.63;1.15;;;;;;;15.51;86.54;99757.25;8260304;28;20038;-55
2022/11/09 01:50:47;;;;;;;9.18;1.10;;;;;;;15.42;87.03;99745.63;8245831;28;20042;-55
2022/11/09 01:54:52;;;;;;;6.13;1.10;;;;;;;15.46;86.89;99752.38;8248963;28;20046;-51
2022/11/09 01:59:01;;;;;;;3.15;1.23;;;;;;;15.58;85.89;99742.66;8237144;28;20051;-50
2022/11/09 02:03:09;;;;;;;6.20;1.42;;;;;;;15.63;85.52;99747.53;8239060;28;20062;-51
2022/11/09 02:07:10;;;;;;;8.85;1.17;;;;;;;15.65;85.32;99749.03;8244136;28;20088;-51
2022/11/09 02:11:15;;;;;;;5.35;0.77;;;;;;;15.61;85.51;99742.28;8248841;28;20503;-49
2022/11/09 02:15:16;;;;;;;5.40;1.00;;;;;;;15.66;85.13;99742.56;8227413;28;20043;-49
2022/11/09 02:19:17;;;;;;;4.13;0.95;;;;;;;15.69;85.09;99733.16;8253732;28;20085;-49
2022/11/09 02:23:18;;;;;;;9.13;1.10;;;;;;;15.64;85.02;99735.59;8258715;28;20042;-50
2022/11/09 02:27:20;;;;;;;3.88;1.08;;;;;;;15.60;85.42;99745.22;8236306;28;20057;-49
2022/11/09 02:31:26;;;;;;;3.25;0.90;;;;;;;15.51;85.78;99752.66;8242004;28;20059;-49
2022/11/09 02:35:27;;;;;;;3.40;0.80;;;;;;;15.37;86.52;99748.06;8237110;28;20042;-49
2022/11/09 02:39:28;;;;;;;4.30;0.85;;;;;;;15.40;86.40;99739.50;8258558;28;20196;-51
2022/11/09 02:43:29;;;;;;;4.65;1.80;;;;;;;15.39;86.19;99740.56;8259556;28;20045;-51
2022/11/09 02:47:30;;;;;;;8.85;1.30;;;;;;;15.51;85.69;99741.75;8258887;28;20034;-52
2022/11/09 02:51:32;;;;;;;4.88;1.10;;;;;;;15.66;85.07;99734.41;8258874;28;20054;-50
2022/11/09 02:55:32;;;;;;;8.35;1.30;;;;;;;15.54;85.68;99729.63;8259177;28;20058;-49
2022/11/09 02:59:33;;;;;;;3.15;0.90;;;;;;;15.55;85.55;99737.59;8257948;28;20053;-50
2022/11/09 03:03:34;;;;;;;4.38;1.23;;;;;;;15.49;85.79;99738.38;8258617;28;20093;-50
2022/11/09 03:07:35;;;;;;;3.85;1.08;;;;;;;15.51;85.80;99749.06;8258775;28;20093;-50
2022/11/09 03:11:38;;;;;;;4.70;0.98;;;;;;;15.61;85.38;99746.88;8257152;28;20046;-51
2022/11/09 03:15:39;;;;;;;5.53;0.88;;;;;;;15.56;85.51;99738.47;8258516;28;20122;-51
2022/11/09 03:19:42;;;;;;;6.82;1.00;;;;;;;15.56;85.62;99750.19;8257817;28;20447;-49
2022/11/09 03:23:43;;;;;;;3.85;0.98;;;;;;;15.66;85.18;99749.88;8259070;28;20034;-49
2022/11/09 03:27:43;;;;;;;7.70;1.15;;;;;;;15.63;85.35;99745.69;8257646;28;20042;-50
2022/11/09 03:32:02;;;;;;;2.53;0.75;;;;;;;15.59;85.46;99744.34;8258498;28;20472;-49
2022/11/09 03:36:03;;;;;;;4.78;0.93;;;;;;;15.53;85.74;99739.66;8264120;28;20079;-48
2022/11/09 03:40:05;;;;;;;5.97;1.25;;;;;;;15.42;86.54;99756.53;8262985;28;20077;-53
2022/11/09 03:44:05;;;;;;;4.03;0.95;;;;;;;15.39;86.81;99748.72;8264290;28;20519;-49
2022/11/09 03:48:06;;;;;;;4.85;0.85;;;;;;;15.35;87.07;99752.84;8263881;28;20478;-49
2022/11/09 03:52:06;;;;;;;8.55;1.27;;;;;;;15.31;87.39;99772.47;8262194;28;20092;-53
2022/11/09 03:56:07;;;;;;;5.43;1.15;;;;;;;15.27;88.02;99777.44;8262087;28;20046;-52
2022/11/09 04:00:08;;;;;;;3.83;1.42;;;;;;;15.27;88.32;99780.16;8262988;28;20042;-49
2022/11/09 04:04:24;;;;;;;5.82;1.08;;;;;;;15.30;87.75;99782.50;8351002;27;20395;-49
2022/11/09 04:08:24;;;;;;;9.60;1.33;;;;;;;15.29;88.22;99786.28;8350200;28;20052;-52
2022/11/09 04:12:25;;;;;;;5.95;1.30;;;;;;;15.17;88.80;99787.78;8328051;28;20063;-49
2022/11/09 04:16:25;;;;;;;10.27;1.15;;;;;;;15.19;88.92;99790.31;8320304;28;20514;-48
2022/11/09 04:20:28;;;;;;;3.08;0.95;;;;;;;15.15;89.10;99789.84;8319758;28;20684;-49
2022/11/09 04:24:29;;;;;;;5.13;0.70;;;;;;;15.16;89.46;99786.06;8335749;28;20084;-49
2022/11/09 04:28:30;;;;;;;2.85;0.95;;;;;;;15.29;88.39;99775.38;8316821;28;20050;-48
2022/11/09 04:32:30;;;;;;;5.75;1.40;;;;;;;15.33;88.76;99773.97;8320027;28;20124;-50
2022/11/09 04:36:31;;;;;;;7.38;1.42;;;;;;;15.44;88.27;99781.66;8319432;28;20128;-49
2022/11/09 04:40:33;;;;;;;5.72;1.30;;;;;;;15.47;88.10;99786.75;8332367;28;20042;-49
2022/11/09 04:44:34;;;;;;;5.82;0.80;;;;;;;15.49;88.31;99787.41;8319230;28;20048;-50
2022/11/09 04:48:34;;;;;;;10.27;1.20;;;;;;;15.56;87.73;99798.41;8318456;28;20503;-51
2022/11/09 04:52:35;;;;;;;9.98;1.92;;;;;;;15.62;87.70;99805.81;8319586;28;20037;-51
2022/11/09 04:56:36;;;;;;;7.55;1.15;;;;;;;15.62;87.62;99787.56;8318793;28;20507;-49
2022/11/09 05:00:37;;;;;;;4.32;0.82;;;;;;;15.73;87.39;99788.94;8316444;28;20502;-52
2022/11/09 05:04:37;;;;;;;7.68;1.30;;;;;;;15.73;87.91;99799.03;8320206;28;20526;-49
2022/11/09 05:08:38;;;;;;;5.65;1.17;;;;;;;15.76;88.12;99795.94;8349846;28;20481;-52
2022/11/09 05:12:38;;;;;;;5.63;1.20;;;;;;;15.66;89.27;99798.94;8326488;28;20383;-49
2022/11/09 05:16:39;;;;;;;7.05;1.00;;;;;;;15.61;89.76;99802.22;8294709;28;20068;-51
2022/11/09 05:20:40;;;;;;;7.20;1.10;;;;;;;15.61;90.33;99791.34;8293376;28;20069;-53
2022/11/09 05:24:40;;;;;;;4.82;0.90;;;;;;;15.52;91.49;99792.47;8292847;28;20042;-52
2022/11/09 05:28:41;;;;;;;3.92;1.10;;;;;;;15.48;92.45;99802.06;8284472;28;20092;-50
2022/11/09 05:32:42;;;;;;;2.47;0.90;;;;;;;15.40;93.27;99801.34;8295175;28;20041;-53
2022/11/09 05:36:42;;;;;;;3.15;0.90;;;;;;;15.37;93.68;99797.09;8274668;28;20046;-49
2022/11/09 05:40:43;;;;;;;4.82;0.88;;;;;;;15.32;94.42;99806.84;8263503;28;20101;-52
2022/11/09 05:44:43;;;;;;;3.33;1.17;;;;;;;15.29;94.95;99801.75;8260944;28;20568;-51
2022/11/09 05:48:45;;;;;;;3.63;1.00;;;;;;;15.28;95.14;99803.63;8262629;28;20496;-49
2022/11/09 05:52:46;;;;;;;5.72;1.20;;;;;;;15.26;95.32;99813.88;8287707;28;20038;-50
2022/11/09 05:56:46;;;;;;;2.60;0.80;;;;;;;15.23;95.38;99797.91;8294218;28;20067;-49
2022/11/09 06:00:47;;;;;;;4.22;0.90;;;;;;;15.19;95.58;99802.03;8290444;28;20041;-49
2022/11/09 06:04:47;;;;;;;3.75;0.88;;;;;;;15.09;96.77;99801.47;8299927;28;20445;-49
2022/11/09 06:08:49;;;;;;;7.57;1.23;;;;;;;14.97;98.19;99818.44;8327514;28;20510;-52
2022/11/09 06:12:50;;;;;;;8.38;1.77;;;;;;;14.84;100.00;99824.53;8288603;28;20046;-49
2022/11/09 06:16:50;;;;;;;4.75;1.52;;;;;;;14.50;100.00;99816.00;8266903;28;20037;-49
2022/11/09 06:20:52;;;;;;;7.38;1.42;;;;;;;14.36;100.00;99814.06;8287624;28;20034;-50
2022/11/09 06:24:53;;;;;;;7.50;1.45;;;;;;;14.22;100.00;99817.56;8286279;28;20042;-50
2022/11/09 06:28:53;;;;;;;6.63;1.98;;;;;;;14.00;100.00;99812.91;8277439;28;20577;-50
2022/11/09 06:32:59;;;;;;;5.65;1.90;;;;;;;13.84;100.00;99819.31;8286249;28;20478;-49
2022/11/09 06:36:59;;;;;;;10.48;1.83;;;;;;;13.77;100.00;99828.34;8292366;28;20045;-50
2022/11/09 06:41:00;;;;;;;3.17;1.10;;;;;;;13.70;100.00;99822.78;8262214;28;20050;-53
2022/11/09 06:45:01;;;;;;;14.80;3.33;;;;;;;13.74;100.00;99826.00;8286037;28;20048;-50
2022/11/09 06:49:01;;;;;;;11.90;2.70;;;;;;;13.67;100.00;99822.31;8282736;28;20121;-49
2022/11/09 06:53:05;;;;;;;9.88;2.45;;;;;;;13.66;100.00;99845.03;8257534;28;20041;-50
2022/11/09 06:57:05;;;;;;;14.75;2.45;;;;;;;13.67;100.00;99847.56;8253886;28;20584;-49
2022/11/09 07:01:08;;;;;;;12.48;2.60;;;;;;;13.54;100.00;99843.72;8287163;28;20049;-49
2022/11/09 07:05:09;;;;;;;7.95;2.58;;;;;;;13.59;100.00;99836.75;8312559;28;20455;-50
2022/11/09 07:09:11;;;;;;;9.95;1.77;;;;;;;13.63;100.00;99856.25;8322519;28;20042;-52
2022/11/09 07:13:11;;;;;;;5.53;1.73;;;;;;;13.62;100.00;99857.28;8298163;28;20064;-49
2022/11/09 07:17:12;;;;;;;8.93;2.00;;;;;;;13.54;100.00;99862.72;8287747;28;20041;-50
2022/11/09 07:21:13;;;;;;;8.93;1.77;;;;;;;13.46;100.00;99862.78;8285892;28;20041;-49
2022/11/09 07:25:13;;;;;;;5.30;1.30;;;;;;;13.43;100.00;99868.56;8320576;28;20049;-50
2022/11/09 07:29:15;;;;;;;5.28;1.10;;;;;;;13.47;100.00;99867.19;8318209;28;20037;-52
2022/11/09 07:33:17;;;;;;;3.97;1.20;;;;;;;13.39;100.00;99878.09;8285673;28;20490;-51
2022/11/09 07:37:18;;;;;;;5.18;1.17;;;;;;;13.46;100.00;99873.66;8294976;28;20446;-50
2022/11/09 07:41:18;;;;;;;5.82;1.08;;;;;;;13.36;100.00;99873.00;8289685;28;20038;-52
2022/11/09 07:45:19;;;;;;;2.90;0.80;;;;;;;13.34;100.00;99886.75;8289467;28;20467;-50
2022/11/09 07:49:19;;;;;;;5.78;1.17;;;;;;;13.47;100.00;99886.19;8308630;28;20038;-50
2022/11/09 07:53:20;;;;;;;3.38;1.00;;;;;;;13.70;100.00;99887.97;8294130;28;20045;-50
2022/11/09 07:57:21;;;;;;;4.35;0.93;;;;;;;14.02;100.00;99892.41;8318253;28;20037;-50
2022/11/09 08:01:21;;;;;;;1.48;0.82;;;;;;;14.19;100.00;99888.59;8281732;28;20037;-49
2022/11/09 08:05:22;;;;;;;4.78;1.13;;;;;;;14.48;100.00;99891.47;8297527;28;20450;-49
2022/11/09 08:09:23;;;;;;;6.90;1.10;;;;;;;14.62;100.00;99890.72;8321361;28;20621;-53
2022/11/09 08:13:24;;;;;;;5.50;1.10;;;;;;;14.80;99.24;99893.13;8273418;28;20042;-50
2022/11/09 08:17:24;;;;;;;4.05;0.98;;;;;;;14.87;98.97;99900.38;8255781;28;20042;-49
2022/11/09 08:21:25;;;;;;;2.58;1.00;;;;;;;14.92;98.91;99892.50;8287144;28;20046;-49
2022/11/09 08:25:25;;;;;;;5.30;1.08;;;;;;;15.05;99.64;99909.06;8289002;28;20509;-51
2022/11/09 08:29:26;;;;;;;4.65;1.70;;;;;;;15.41;95.88;99909.25;8298768;28;20044;-50
2022/11/09 08:33:33;;;;;;;7.68;1.58;;;;;;;15.69;94.02;99913.88;8302743;28;20046;-53
2022/11/09 08:37:33;;;;;;;10.00;2.03;;;;;;;16.04;90.53;99911.41;8256454;28;20403;-53
2022/11/09 08:41:35;;;;;;;8.27;1.30;;;;;;;16.91;86.03;99922.06;8283246;28;20108;-50
2022/11/09 08:45:38;;;;;;;7.50;1.45;;;;;;;18.15;79.26;99921.09;8288217;28;20064;-50
2022/11/09 08:49:38;;;;;;;5.13;1.70;;;;;;;19.17;75.95;99920.75;8299685;28;20125;-50
2022/11/09 08:53:39;;;;;;;4.78;1.40;;;;;;;19.81;73.45;99928.31;8294269;28;20498;-49
2022/11/09 08:57:39;;;;;;;5.05;1.60;;;;;;;20.92;70.12;99928.72;8293841;28;20037;-51
2022/11/09 09:01:40;;;;;;;5.15;1.10;;;;;;;21.56;67.19;99937.53;8293898;28;20613;-50
2022/11/09 09:05:41;;;;;;;6.55;1.17;;;;;;;21.00;67.22;99939.47;8308451;28;20704;-51
2022/11/09 09:09:42;;;;;;;2.53;0.80;;;;;;;20.34;67.96;99940.88;8325255;28;20037;-50
2022/11/09 09:13:43;;;;;;;3.90;1.10;;;;;;;19.23;69.88;99947.31;8301209;28;20080;-49
2022/11/09 09:17:44;;;;;;;5.82;0.70;;;;;;;18.32;70.39;99941.59;8292881;28;20049;-50
2022/11/09 09:21:44;;;;;;;3.17;0.60;;;;;;;17.85;71.42;99944.31;8268471;28;20096;-49
2022/11/09 09:25:45;;;;;;;1.77;0.55;;;;;;;17.91;70.87;99953.56;8261015;28;20050;-49
2022/11/09 09:29:45;;;;;;;3.03;0.80;;;;;;;18.77;68.36;99946.41;8282608;28;20041;-51
2022/11/09 09:33:46;;;;;;;7.10;1.00;;;;;;;18.91;67.50;99950.84;8290233;28;20100;-50
2022/11/09 09:37:47;;;;;;;3.53;0.77;;;;;;;18.77;67.41;99949.16;8288436;28;20049;-50
2022/11/09 09:41:55;;;;;;;4.38;0.73;;;;;;;18.48;68.51;99963.16;8292737;28;20458;-52
2022/11/09 09:45:57;;;;;;;4.78;0.88;;;;;;;18.37;68.33;99971.97;8323214;28;20132;-53
2022/11/09 09:50:03;;;;;;;2.47;0.60;;;;;;;17.72;70.26;99974.31;8301230;28;20041;-50
2022/11/09 09:54:13;;;;;;;3.08;0.98;;;;;;;17.48;70.85;99980.22;8292627;28;20046;-49
2022/11/09 09:58:24;;;;;;;5.25;1.15;;;;;;;17.52;71.46;99986.97;8292510;28;20033;-50
2022/11/09 10:02:27;;;;;;;3.08;0.50;;;;;;;17.57;70.57;99989.97;8294170;28;20590;-53
2022/11/09 10:11:20;;;;;;;3.40;0.80;;;;;;;17.93;68.29;100000.72;8416558;27;20394;-52
2022/11/09 10:15:49;;;;;;;5.78;0.65;;;;;;;17.88;68.15;100005.94;8383107;28;20402;-51
2022/11/09 10:20:14;;;;;;;5.20;0.68;;;;;;;18.83;65.50;99999.50;8396754;28;20039;-52
2022/11/09 10:28:44;;;;;;;8.05;1.30;;;;;;;19.48;63.16;100005.13;8352467;27;20490;-50
2022/11/09 10:32:50;;;;;;;4.65;0.95;;;;;;;19.96;61.86;100001.13;8335819;28;20041;-51
2022/11/09 10:36:57;;;;;;;8.75;1.27;;;;;;;20.37;60.14;100011.84;8302971;28;20125;-52
2022/11/09 10:41:04;;;;;;;6.57;0.95;;;;;;;20.27;59.66;100005.94;8305031;28;20080;-51
2022/11/09 10:45:30;;;;;;;13.50;2.33;;;;;;;19.48;61.38;100013.38;8302866;28;20988;-51
2022/11/09 10:50:29;;;;;;;7.65;0.82;;;;;;;20.34;59.90;100017.75;8332963;28;20045;-49
2022/11/09 10:54:49;;;;;;;10.45;1.00;;;;;;;21.83;56.18;100015.25;8319682;28;20037;-52
2022/11/09 10:59:49;;;;;;;6.13;0.95;;;;;;;22.02;55.32;100014.22;8330634;28;20378;-48
2022/11/09 11:04:20;;;;;;;4.88;0.88;;;;;;;21.23;57.27;100014.00;8326131;28;20041;-49
2022/11/09 11:08:45;;;;;;;7.07;1.00;;;;;;;22.10;55.21;100017.50;8313486;28;20397;-49
2022/11/09 11:17:24;;;;;;;9.10;2.35;;;;;;;21.53;55.96;100008.69;8317479;28;20407;-51
2022/11/09 11:21:45;;;;;;;3.25;0.80;;;;;;;21.34;56.76;100018.75;8315354;28;20045;-49
2022/11/09 11:30:36;;;;;;;6.57;1.42;;;;;;;20.15;58.53;100019.47;8352357;27;20498;-49
2022/11/09 11:34:56;;;;;;;7.30;1.00;;;;;;;19.09;60.68;100022.34;8323017;28;20045;-52
2022/11/09 11:48:40;;;;;;;6.43;1.05;;;;;;;18.68;62.20;100013.38;8420662;27;20784;-49
2022/11/09 11:57:58;;;;;;;4.75;1.08;;;;;;;18.34;63.80;100021.59;8416960;27;20414;-49
2022/11/09 12:02:52;;;;;;;6.60;0.80;;;;;;;19.32;61.37;100019.25;8407440;28;20044;-51
2022/11/09 12:07:38;;;;;;;9.95;1.50;;;;;;;19.72;58.69;100020.13;8414858;28;20043;-49
2022/11/09 12:12:29;;;;;;;7.72;1.20;;;;;;;20.51;57.27;100029.94;8415602;28;20042;-51
2022/11/09 12:17:14;;;;;;;5.22;0.90;;;;;;;20.70;56.77;100018.03;8414056;28;20497;-50
2022/11/09 12:21:50;;;;;;;5.32;1.00;;;;;;;19.60;59.02;100030.88;8407029;28;20535;-51
2022/11/09 12:26:23;;;;;;;5.53;1.10;;;;;;;18.73;62.00;100030.00;8412765;28;20418;-48
2022/11/09 12:31:03;;;;;;;8.33;0.80;;;;;;;19.24;60.96;100036.72;8415085;28;20039;-49
2022/11/09 12:35:37;;;;;;;4.38;1.10;;;;;;;18.80;59.57;100025.44;8414161;28;20074;-49
2022/11/09 12:40:12;;;;;;;3.67;1.02;;;;;;;18.81;58.95;100029.84;8413816;28;20596;-52
2022/11/09 12:44:41;;;;;;;9.15;1.15;;;;;;;19.24;58.43;100028.50;8414346;28;20485;-50
2022/11/09 12:49:04;;;;;;;5.97;1.15;;;;;;;19.21;58.77;100031.66;8413703;28;20043;-48
2022/11/09 12:53:27;;;;;;;6.35;0.88;;;;;;;18.69;60.38;100036.97;8391724;28;20032;-49
2022/11/09 12:57:48;;;;;;;4.72;0.80;;;;;;;18.22;59.58;100038.78;8395329;28;20048;-49
2022/11/09 13:02:22;;;;;;;7.15;1.13;;;;;;;17.88;60.37;100041.50;8407661;28;20090;-48
2022/11/09 13:07:05;;;;;;;7.43;1.10;;;;;;;17.70;61.87;100050.19;8387014;28;20088;-48
2022/11/09 13:11:45;;;;;;;3.63;0.55;;;;;;;17.45;62.06;100054.41;8383219;28;20516;-51
2022/11/09 13:16:13;;;;;;;5.35;0.90;;;;;;;17.37;63.58;100059.94;8372798;28;20040;-50
2022/11/09 13:25:22;;;;;;;8.98;0.70;;;;;;;17.27;65.26;100059.44;8348344;28;20389;-48
2022/11/09 13:34:36;;;;;;;6.70;0.90;;;;;;;17.14;65.89;100064.75;8402570;27;20357;-48
2022/11/09 13:39:36;;;;;;;6.00;0.80;;;;;;;16.93;66.02;100073.75;8379223;28;20447;-48
2022/11/09 13:44:17;;;;;;;5.63;0.98;;;;;;;16.78;67.68;100080.28;8405725;28;20052;-49
2022/11/09 13:48:44;;;;;;;8.77;1.17;;;;;;;16.88;67.96;100078.09;8378589;28;20520;-48
2022/11/09 13:53:28;;;;;;;8.90;1.08;;;;;;;16.91;66.63;100069.53;8395720;28;20062;-48
2022/11/09 13:57:50;;;;;;;7.97;1.02;;;;;;;16.94;66.71;100063.69;8404723;28;20082;-49
2022/11/09 14:02:21;;;;;;;6.20;0.75;;;;;;;16.95;65.74;100070.81;8396214;28;20090;-49
2022/11/09 14:06:42;;;;;;;11.65;1.20;;;;;;;16.95;66.35;100068.94;8407018;28;20036;-48
2022/11/09 14:11:36;;;;;;;6.88;0.85;;;;;;;17.26;65.58;100068.69;8398625;28;20037;-49
2022/11/09 14:16:09;;;;;;;5.35;0.90;;;;;;;17.24;65.67;100076.22;8404432;28;20378;-50
2022/11/09 14:20:40;;;;;;;5.40;0.77;;;;;;;17.00;66.40;100071.97;8410656;28;20258;-49
2022/11/09 14:25:20;;;;;;;8.20;1.20;;;;;;;16.87;66.78;100090.91;8368961;28;20402;-49
2022/11/09 14:29:51;;;;;;;5.85;0.90;;;;;;;16.75;68.19;100097.06;8411018;28;20032;-49
2022/11/09 14:34:15;;;;;;;5.22;1.10;;;;;;;16.59;69.50;100097.28;8384511;28;20036;-50
2022/11/09 14:38:46;;;;;;;2.38;0.80;;;;;;;16.62;68.41;100097.72;8377762;28;20041;-49
2022/11/09 14:43:32;;;;;;;5.10;0.65;;;;;;;16.55;68.97;100113.16;8388426;28;20065;-51
2022/11/09 14:47:58;;;;;;;4.88;0.80;;;;;;;16.44;69.39;100110.06;8387937;28;20044;-48
2022/11/09 14:52:26;;;;;;;3.95;1.25;;;;;;;16.51;69.14;100130.09;8387271;28;20044;-49
2022/11/09 14:56:47;;;;;;;3.25;0.77;;;;;;;16.48;69.78;100127.75;8360831;28;20473;-51
2022/11/09 15:01:25;;;;;;;5.18;1.25;;;;;;;16.30;71.42;100149.91;8372209;28;20028;-49
2022/11/09 15:05:46;;;;;;;6.07;1.17;;;;;;;16.11;72.25;100147.72;8352784;28;20315;-48
2022/11/09 15:10:18;;;;;;;4.88;0.88;;;;;;;15.87;73.89;100156.13;8373275;28;20040;-50
2022/11/09 15:14:39;;;;;;;6.47;1.20;;;;;;;15.73;74.98;100158.78;8363066;28;20040;-50
2022/11/09 15:19:00;;;;;;;5.25;1.27;;;;;;;15.74;75.48;100162.16;8369633;28;20402;-48
2022/11/09 15:23:36;;;;;;;4.40;1.40;;;;;;;15.58;76.07;100167.75;8384530;28;20078;-50
2022/11/09 15:28:18;;;;;;;4.40;1.60;;;;;;;15.42;76.82;100167.00;8353790;28;20546;-49
2022/11/09 15:32:45;;;;;;;8.03;1.53;;;;;;;15.44;76.00;100173.97;8380646;28;20062;-48
2022/11/09 15:37:28;;;;;;;4.72;1.00;;;;;;;15.36;76.15;100163.09;8353999;28;20410;-49
2022/11/09 15:41:49;;;;;;;4.70;1.33;;;;;;;15.36;76.02;100179.44;8352944;28;20466;-49
2022/11/09 15:46:18;;;;;;;5.80;1.23;;;;;;;15.20;76.74;100174.09;8351895;28;20048;-50
2022/11/09 15:50:39;;;;;;;7.13;1.38;;;;;;;15.10;77.06;100178.88;8354202;28;20091;-48
2022/11/09 15:54:59;;;;;;;6.68;1.80;;;;;;;15.02;77.58;100187.13;8340804;28;20057;-49
2022/11/09 15:59:23;;;;;;;5.78;0.80;;;;;;;15.06;76.50;100195.75;8338734;28;20037;-49
2022/11/09 16:03:43;;;;;;;6.57;1.00;;;;;;;15.04;75.94;100190.50;8338970;28;20463;-48
2022/11/09 16:08:06;;;;;;;5.35;1.30;;;;;;;14.99;76.13;100198.34;8321274;28;20037;-48
2022/11/09 16:12:26;;;;;;;8.30;1.48;;;;;;;14.83;77.03;100203.88;8338801;28;20048;-51
2022/11/09 16:16:47;;;;;;;5.13;1.10;;;;;;;14.75;77.47;100216.63;8328062;28;20075;-49
2022/11/09 16:21:11;;;;;;;9.65;1.40;;;;;;;14.67;77.86;100214.78;8324667;28;20044;-49
2022/11/09 16:25:32;;;;;;;6.40;1.00;;;;;;;14.56;77.97;100223.31;8347856;28;20037;-49
2022/11/09 16:29:53;;;;;;;7.43;0.95;;;;;;;14.45;78.41;100234.56;8329287;28;20041;-52
2022/11/09 16:34:14;;;;;;;8.73;1.13;;;;;;;14.42;78.30;100250.38;8335607;28;20558;-51
2022/11/09 16:38:43;;;;;;;11.88;1.20;;;;;;;14.27;79.07;100254.81;8346885;28;20132;-49
2022/11/09 16:43:04;;;;;;;5.85;1.58;;;;;;;14.23;78.96;100259.72;8333381;28;20544;-51
2022/11/09 16:47:26;;;;;;;4.53;0.98;;;;;;;14.29;78.07;100264.50;8343816;28;20498;-49
2022/11/09 16:51:46;;;;;;;5.40;1.00;;;;;;;14.22;78.09;100268.88;8344653;28;20310;-51
2022/11/09 16:56:07;;;;;;;7.20;1.13;;;;;;;14.15;78.34;100278.72;8354021;28;20526;-50
2022/11/09 17:00:27;;;;;;;6.80;1.10;;;;;;;14.10;78.66;100286.56;8352174;28;20055;-50
2022/11/09 17:04:48;;;;;;;3.55;1.10;;;;;;;14.06;78.93;100298.75;8332069;28;20036;-52
2022/11/09 17:09:08;;;;;;;7.55;0.90;;;;;;;14.16;78.45;100304.06;8338581;28;20115;-49
2022/11/09 17:13:29;;;;;;;6.18;0.98;;;;;;;14.12;78.65;100295.38;8354349;28;20064;-48
2022/11/09 17:17:49;;;;;;;5.65;0.80;;;;;;;14.14;79.11;100309.66;8345569;28;20060;-49
2022/11/09 17:22:10;;;;;;;2.30;1.20;;;;;;;14.14;79.57;100325.97;8353085;28;20056;-50
2022/11/09 17:26:32;;;;;;;7.43;1.08;;;;;;;14.11;80.27;100326.31;8347583;28;20060;-49
2022/11/09 17:30:53;;;;;;;8.52;1.52;;;;;;;14.13;80.41;100329.72;8348641;28;20091;-49
2022/11/09 17:35:13;;;;;;;6.82;1.63;;;;;;;14.18;79.57;100338.19;8350694;28;20091;-49
2022/11/09 17:39:33;;;;;;;10.23;1.70;;;;;;;14.14;79.72;100336.84;8353343;28;20048;-50
2022/11/09 17:43:54;;;;;;;5.72;1.70;;;;;;;14.19;79.74;100349.94;8346514;28;20033;-50
2022/11/09 17:48:15;;;;;;;6.05;1.25;;;;;;;14.18;80.39;100362.66;8346354;28;20042;-50
2022/11/09 17:52:36;;;;;;;5.75;1.40;;;;;;;14.35;79.80;100367.16;8351209;28;20037;-49
2022/11/09 17:56:56;;;;;;;7.53;1.20;;;;;;;14.29;80.22;100378.72;8347638;28;20056;-49
2022/11/09 18:01:19;;;;;;;4.43;1.23;;;;;;;14.19;80.86;100380.72;8321863;28;20513;-49
2022/11/09 18:05:41;;;;;;;6.30;1.02;;;;;;;14.16;81.04;100389.19;8312557;28;20044;-52
2022/11/09 18:10:01;;;;;;;6.82;1.27;;;;;;;14.05;81.99;100396.78;8355933;28;20040;-48
2022/11/09 18:14:22;;;;;;;7.32;1.33;;;;;;;13.86;82.96;100406.09;8346684;28;20040;-50
2022/11/09 18:18:43;;;;;;;4.78;1.20;;;;;;;13.84;82.58;100418.97;8359022;28;20045;-48
2022/11/09 18:23:04;;;;;;;7.18;1.00;;;;;;;13.80;82.87;100412.19;8337815;28;20043;-48
2022/11/09 18:27:24;;;;;;;3.97;1.13;;;;;;;13.71;83.31;100422.16;8333225;28;20041;-52
2022/11/09 18:31:44;;;;;;;6.35;1.50;;;;;;;13.68;83.50;100432.50;8339684;28;20383;-48
2022/11/09 18:36:08;;;;;;;5.72;1.17;;;;;;;13.66;83.50;100434.53;8342893;28;20493;-48
2022/11/09 18:40:28;;;;;;;6.17;1.27;;;;;;;13.63;83.75;100446.56;8346969;28;20049;-49
2022/11/09 18:44:49;;;;;;;11.50;1.67;;;;;;;13.61;83.76;100443.16;8328196;28;20112;-49
2022/11/09 18:49:09;;;;;;;10.80;1.35;;;;;;;13.63;83.76;100456.56;8361992;28;20029;-48
2022/11/09 18:53:40;;;;;;;10.60;1.50;;;;;;;13.63;83.88;100456.56;8358922;28;20051;-48
2022/11/09 18:58:01;;;;;;;5.35;1.58;;;;;;;13.51;84.57;100466.03;8355726;28;20052;-48
2022/11/09 19:02:21;;;;;;;6.15;1.35;;;;;;;13.43;85.11;100460.53;8352398;28;20051;-49
2022/11/09 19:06:42;;;;;;;6.35;1.40;;;;;;;13.32;85.63;100467.09;8356450;28;20414;-48
2022/11/09 19:11:05;;;;;;;8.23;1.42;;;;;;;13.33;85.71;100476.09;8355962;28;20131;-48
2022/11/09 19:15:25;;;;;;;4.10;1.02;;;;;;;13.29;85.47;100482.84;8346378;28;20444;-48
2022/11/09 19:19:46;;;;;;;10.10;1.45;;;;;;;13.32;85.76;100496.09;8349850;28;20045;-48
2022/11/09 19:24:09;;;;;;;8.43;1.05;;;;;;;13.37;85.34;100488.34;8359580;28;20065;-51
2022/11/09 19:28:30;;;;;;;7.78;1.58;;;;;;;13.33;85.54;100492.41;8358203;28;20124;-48
2022/11/09 19:32:50;;;;;;;11.73;1.60;;;;;;;13.31;85.66;100497.97;8343270;28;20041;-48
2022/11/09 19:37:12;;;;;;;9.38;1.48;;;;;;;13.33;85.43;100503.25;8353744;28;20045;-48
2022/11/09 19:41:32;;;;;;;6.63;1.70;;;;;;;13.37;85.48;100504.63;8351531;28;20711;-48
2022/11/09 19:45:53;;;;;;;9.55;1.45;;;;;;;13.45;85.02;100504.69;8338760;28;20048;-48
2022/11/09 19:50:14;;;;;;;11.18;1.75;;;;;;;13.45;84.75;100502.81;8353074;28;20048;-49
2022/11/09 19:54:34;;;;;;;9.65;1.90;;;;;;;13.41;85.23;100516.88;8349246;28;20144;-48
2022/11/09 19:58:57;;;;;;;7.65;1.45;;;;;;;13.36;85.48;100528.22;8339999;28;20029;-49
2022/11/09 20:03:18;;;;;;;9.57;1.47;;;;;;;13.29;86.33;100529.88;8342004;28;20045;-48
2022/11/09 20:07:38;;;;;;;8.63;1.38;;;;;;;13.35;86.36;100539.22;8373017;28;20032;-49
2022/11/09 20:12:59;;;;;;;13.85;2.70;;;;;;;13.34;86.22;100542.97;8357403;28;20057;-48
2022/11/09 20:16:41;;;;;;;7.35;1.30;;;;;;;13.38;85.93;100557.94;8359178;28;20462;-48
2022/11/09 20:21:02;;;;;;;6.28;1.45;;;;;;;13.30;86.44;100563.31;8351395;28;20029;-48
2022/11/09 20:25:22;;;;;;;9.07;1.60;;;;;;;13.22;86.80;100577.66;8326065;28;20048;-48